createdAt,value
2024-02-11T00:02:18.766Z,99193.63
2024-02-11T00:06:31.519Z,99190.38
2024-02-11T00:10:43.986Z,99181.09
2024-02-11T00:14:57.460Z,99188.75
2024-02-11T00:19:10.156Z,99195.75
2024-02-11T00:23:26.101Z,99226.81
2024-02-11T00:27:50.497Z,99239.75
2024-02-11T00:32:02.905Z,99208.38
2024-02-11T00:36:17.566Z,99241.25
2024-02-11T00:40:30.002Z,99239.59
2024-02-11T00:44:43.535Z,99241.25
2024-02-11T00:48:55.926Z,99224.53
2024-02-11T00:53:08.369Z,99229.66
2024-02-11T00:57:21.681Z,99230.25
2024-02-11T01:01:34.076Z,99216.47
2024-02-11T01:05:46.934Z,99219.47
2024-02-11T01:09:59.627Z,99201.28
2024-02-11T01:14:12.318Z,99198.13
2024-02-11T01:18:24.734Z,99198.78
2024-02-11T01:22:43.774Z,99195.22
2024-02-11T01:26:58.315Z,99199.47
2024-02-11T01:31:10.706Z,99188.56
2024-02-11T01:35:23.221Z,99187.13
2024-02-11T01:39:36.237Z,99179.84
2024-02-11T01:43:48.690Z,99205.63
2024-02-11T01:48:01.136Z,99207.84
2024-02-11T01:52:14.950Z,99206.88
2024-02-11T01:56:27.442Z,99197.47
2024-02-11T02:00:39.949Z,99189.69
2024-02-11T02:04:53.738Z,99189.94
2024-02-11T02:09:06.232Z,99161.22
2024-02-11T02:13:20.166Z,99142.94
2024-02-11T02:17:32.593Z,99148.75
2024-02-11T02:21:53.148Z,99167.22
2024-02-11T02:26:10.196Z,99169.22
2024-02-11T02:30:23.966Z,99170.28
2024-02-11T02:34:36.355Z,99166.34
2024-02-11T02:38:49.062Z,99155.59
2024-02-11T02:43:08.507Z,99142.88
2024-02-11T02:47:20.996Z,99149.66
2024-02-11T02:51:33.555Z,99130.50
2024-02-11T02:55:45.892Z,99119.47
2024-02-11T02:59:59.482Z,99128.22
2024-02-11T03:04:13.465Z,99113.53
2024-02-11T03:08:27.276Z,99115.97
2024-02-11T03:12:39.648Z,99109.09
2024-02-11T03:16:52.044Z,99101.78
2024-02-11T03:21:04.685Z,99090.84
2024-02-11T03:25:17.224Z,99086.47
2024-02-11T03:29:29.529Z,99054.75
2024-02-11T03:33:42.044Z,99056.50
2024-02-11T03:37:54.841Z,99049.00
2024-02-11T03:42:07.198Z,99044.59
2024-02-11T03:46:23.827Z,99039.69
2024-02-11T03:50:36.166Z,99031.63
2024-02-11T03:54:48.633Z,99026.19
2024-02-11T03:59:01.450Z,99008.50
2024-02-11T04:03:14.535Z,99018.03
2024-02-11T04:07:27.324Z,99011.19
2024-02-11T04:11:39.720Z,99008.16
2024-02-11T04:15:57.791Z,98994.50
2024-02-11T04:20:16.813Z,98977.50
2024-02-11T04:24:29.938Z,98962.81
2024-02-11T04:28:42.854Z,98957.44
2024-02-11T04:32:55.588Z,98942.47
2024-02-11T04:37:08.109Z,98939.63
2024-02-11T04:41:20.664Z,98954.63
2024-02-11T04:45:33.130Z,98944.88
2024-02-11T04:49:45.915Z,98962.31
2024-02-11T04:53:59.068Z,98951.53
2024-02-11T04:58:17.566Z,98940.91
2024-02-11T05:02:31.636Z,98951.22
2024-02-11T05:06:44.826Z,98946.41
2024-02-11T05:10:57.909Z,98922.56
2024-02-11T05:15:10.533Z,98926.94
2024-02-11T05:19:22.946Z,98918.59
2024-02-11T05:23:35.249Z,98931.97
2024-02-11T05:27:58.417Z,98921.69
2024-02-11T05:32:13.164Z,98890.78
2024-02-11T05:36:25.669Z,98910.56
2024-02-11T05:40:47.143Z,98892.00
2024-02-11T05:44:59.611Z,98881.75
2024-02-11T05:49:13.254Z,98872.53
2024-02-11T05:53:25.659Z,98882.22
2024-02-11T05:57:40.424Z,98881.31
2024-02-11T06:01:53.115Z,98875.19
2024-02-11T06:06:08.309Z,98865.66
2024-02-11T06:10:21.664Z,98882.78
2024-02-11T06:14:35.330Z,98867.63
2024-02-11T06:18:47.712Z,98863.47
2024-02-11T06:23:00.112Z,98861.84
2024-02-11T06:27:13.614Z,98855.47
2024-02-11T06:31:26.481Z,98855.63
2024-02-11T06:35:38.861Z,98836.94
2024-02-11T06:39:53.017Z,98833.25
2024-02-11T06:44:07.654Z,98846.44
2024-02-11T06:48:20.686Z,98843.78
2024-02-11T06:52:34.292Z,98842.50
2024-02-11T06:56:48.845Z,98840.25
2024-02-11T07:01:01.301Z,98837.13
2024-02-11T07:05:13.754Z,98848.69
2024-02-11T07:09:26.133Z,98828.78
2024-02-11T07:13:42.536Z,98831.13
2024-02-11T07:17:55.474Z,98842.53
2024-02-11T07:22:07.960Z,98829.91
2024-02-11T07:26:20.442Z,98839.97
2024-02-11T07:30:32.760Z,98837.75
2024-02-11T07:34:45.225Z,98828.28
2024-02-11T07:38:57.770Z,98837.19
2024-02-11T07:43:11.282Z,98854.38
2024-02-11T07:47:26.553Z,98844.94
2024-02-11T07:51:44.309Z,98866.38
2024-02-11T07:55:56.692Z,98854.13
2024-02-11T08:00:09.484Z,98878.38
2024-02-11T08:04:22.054Z,98888.59
2024-02-11T08:08:38.806Z,98871.00
2024-02-11T08:12:53.946Z,98896.84
2024-02-11T08:17:07.272Z,98906.63
2024-02-11T08:21:20.968Z,98924.53
2024-02-11T08:25:33.878Z,98912.19
2024-02-11T08:29:49.047Z,98913.19
2024-02-11T08:34:02.370Z,98932.69
2024-02-11T08:38:15.484Z,98945.03
2024-02-11T08:42:30.854Z,98949.75
2024-02-11T08:46:43.262Z,98948.25
2024-02-11T08:50:56.201Z,98935.16
2024-02-11T08:55:09.241Z,98939.13
2024-02-11T08:59:21.726Z,98945.88
2024-02-11T09:03:34.163Z,98954.22
2024-02-11T09:07:48.208Z,98956.25
2024-02-11T09:12:01.116Z,98963.66
2024-02-11T09:16:13.909Z,98954.59
2024-02-11T09:20:26.436Z,98959.84
2024-02-11T09:24:42.689Z,98969.75
2024-02-11T09:28:55.834Z,98976.75
2024-02-11T09:33:08.288Z,98958.19
2024-02-11T09:37:20.656Z,98988.06
2024-02-11T09:41:34.491Z,99004.34
2024-02-11T09:45:49.011Z,98980.97
2024-02-11T09:50:05.656Z,98979.00
2024-02-11T09:54:20.024Z,98969.88
2024-02-11T09:58:34.683Z,98968.00
2024-02-11T10:02:50.471Z,98992.19
2024-02-11T10:07:05.267Z,98988.00
2024-02-11T10:11:20.354Z,99000.59
2024-02-11T10:15:39.910Z,98987.25
2024-02-11T10:19:52.938Z,98964.53
2024-02-11T10:24:05.570Z,98975.34
2024-02-11T10:28:19.134Z,98969.72
2024-02-11T10:32:36.899Z,98983.75
2024-02-11T10:36:55.125Z,98972.34
2024-02-11T10:41:08.250Z,98959.41
2024-02-11T10:45:20.764Z,98929.00
2024-02-11T10:49:33.509Z,98979.53
2024-02-11T10:53:50.065Z,98987.88
2024-02-11T10:58:05.333Z,98977.00
2024-02-11T11:02:18.128Z,98976.97
2024-02-11T11:06:33.386Z,98957.16
2024-02-11T11:10:45.792Z,98970.09
2024-02-11T11:14:59.256Z,98979.66
2024-02-11T11:19:16.822Z,98960.56
2024-02-11T11:23:30.010Z,98946.63
2024-02-11T11:27:42.397Z,98949.38
2024-02-11T11:31:57.530Z,98942.13
2024-02-11T11:36:10.212Z,98937.88
2024-02-11T11:40:24.430Z,98934.84
2024-02-11T11:44:36.772Z,98930.53
2024-02-11T11:48:49.224Z,98924.97
2024-02-11T11:53:02.721Z,98932.72
2024-02-11T11:57:15.243Z,98933.22
2024-02-11T12:01:27.584Z,98935.19
2024-02-11T12:05:43.530Z,98912.25
2024-02-11T12:09:55.920Z,98915.59
2024-02-11T12:14:10.659Z,98922.78
2024-02-11T12:18:24.526Z,98930.72
2024-02-11T12:22:37.549Z,98927.09
2024-02-11T12:26:50.156Z,98925.72
2024-02-11T12:31:20.976Z,98917.38
2024-02-11T12:35:37.583Z,98921.34
2024-02-11T12:39:50.130Z,98917.00
2024-02-11T12:44:06.580Z,98915.72
2024-02-11T12:48:19.116Z,98891.38
2024-02-11T12:52:35.499Z,98872.47
2024-02-11T12:56:47.874Z,98889.88
2024-02-11T13:01:01.254Z,98892.25
2024-02-11T13:05:17.643Z,98884.75
2024-02-11T13:09:33.421Z,98913.69
2024-02-11T13:13:47.665Z,98941.84
2024-02-11T13:18:00.313Z,98927.03
2024-02-11T13:22:15.782Z,98934.53
2024-02-11T13:26:28.637Z,98917.19
2024-02-11T13:30:42.606Z,98919.34
2024-02-11T13:34:55.144Z,98947.19
2024-02-11T13:39:07.577Z,98938.19
2024-02-11T13:43:20.774Z,98937.47
2024-02-11T13:47:36.275Z,98942.50
2024-02-11T13:51:49.994Z,98946.19
2024-02-11T13:56:02.505Z,98946.69
2024-02-11T14:00:17.329Z,98949.25
2024-02-11T14:04:35.115Z,98945.31
2024-02-11T14:08:47.777Z,98937.47
2024-02-11T14:13:04.981Z,98945.47
2024-02-11T14:17:17.507Z,98948.16
2024-02-11T14:21:29.850Z,98943.38
2024-02-11T14:25:43.646Z,98967.63
2024-02-11T14:29:55.981Z,98941.75
2024-02-11T14:34:10.018Z,98946.50
2024-02-11T14:38:22.715Z,98961.44
2024-02-11T14:42:34.982Z,98958.88
2024-02-11T14:46:47.970Z,98945.78
2024-02-11T14:51:00.964Z,98951.53
2024-02-11T14:55:14.408Z,98947.41
2024-02-11T14:59:30.015Z,98954.63
2024-02-11T15:03:44.202Z,98942.94
2024-02-11T15:07:57.252Z,98934.09
2024-02-11T15:12:11.244Z,98948.28
2024-02-11T15:16:23.863Z,98939.72
2024-02-11T15:20:36.687Z,98948.78
2024-02-11T15:24:50.283Z,98945.75
2024-02-11T15:29:02.758Z,98966.66
2024-02-11T15:33:15.582Z,98954.28
2024-02-11T15:37:28.409Z,98966.53
2024-02-11T15:41:42.750Z,98951.47
2024-02-11T15:45:55.136Z,98950.38
2024-02-11T15:50:11.004Z,98963.97
2024-02-11T15:54:23.842Z,98963.41
2024-02-11T15:58:36.625Z,98963.41
2024-02-11T16:02:49.209Z,98947.53
2024-02-11T16:07:04.082Z,98948.69
2024-02-11T16:11:16.748Z,98949.53
2024-02-11T16:15:30.906Z,98943.56
2024-02-11T16:19:43.508Z,98938.63
2024-02-11T16:23:55.945Z,98947.28
2024-02-11T16:28:08.579Z,98952.63
2024-02-11T16:32:24.414Z,98956.47
2024-02-11T16:36:38.873Z,98962.72
2024-02-11T16:40:51.337Z,98964.75
2024-02-11T16:45:04.169Z,98970.81
2024-02-11T16:49:16.639Z,98982.56
2024-02-11T16:53:29.700Z,98981.91
2024-02-11T16:57:42.284Z,98997.94
2024-02-11T17:01:56.899Z,99004.06
2024-02-11T17:06:16.063Z,98999.22
2024-02-11T17:10:28.866Z,98997.69
2024-02-11T17:14:44.604Z,99004.50
2024-02-11T17:18:57.986Z,99001.75
2024-02-11T17:23:11.354Z,99002.09
2024-02-11T17:27:23.947Z,99005.81
2024-02-11T17:31:43.649Z,99013.91
2024-02-11T17:35:59.843Z,99012.38
2024-02-11T17:40:12.983Z,99010.06
2024-02-11T17:44:25.588Z,99022.59
2024-02-11T17:48:39.702Z,99033.63
2024-02-11T17:52:52.209Z,99085.03
2024-02-11T17:57:04.914Z,99154.50
2024-02-11T18:01:18.875Z,99140.44
2024-02-11T18:05:31.716Z,99134.66
2024-02-11T18:09:44.424Z,99128.16
2024-02-11T18:13:57.190Z,99127.28
2024-02-11T18:18:09.577Z,99130.88
2024-02-11T18:22:22.143Z,99103.00
2024-02-11T18:26:34.636Z,99148.88
2024-02-11T18:30:47.259Z,99131.28
2024-02-11T18:35:00.341Z,99117.28
2024-02-11T18:39:16.045Z,99106.66
2024-02-11T18:43:28.555Z,99115.38
2024-02-11T18:47:41.080Z,99100.47
2024-02-11T18:51:53.654Z,99081.53
2024-02-11T18:56:08.250Z,99080.00
2024-02-11T19:00:21.946Z,99085.13
2024-02-11T19:04:34.710Z,99073.66
2024-02-11T19:08:47.251Z,99079.03
2024-02-11T19:12:59.578Z,99086.25
2024-02-11T19:17:15.041Z,99098.63
2024-02-11T19:21:27.612Z,99098.56
2024-02-11T19:25:40.112Z,99107.91
2024-02-11T19:29:52.379Z,99102.41
2024-02-11T19:34:05.881Z,99103.38
2024-02-11T19:38:20.735Z,99098.47
2024-02-11T19:42:33.884Z,99093.47
2024-02-11T19:46:46.346Z,99093.59
2024-02-11T19:51:02.242Z,99096.56
2024-02-11T19:55:15.175Z,99095.00
2024-02-11T19:59:27.827Z,99086.50
2024-02-11T20:03:41.124Z,99080.66
2024-02-11T20:07:57.126Z,99076.03
2024-02-11T20:12:10.411Z,99065.78
2024-02-11T20:16:22.872Z,99061.06
2024-02-11T20:20:36.623Z,99053.16
2024-02-11T20:24:49.055Z,99087.09
2024-02-11T20:29:01.546Z,99117.56
2024-02-11T20:33:15.196Z,99119.44
2024-02-11T20:37:27.672Z,99125.53
2024-02-11T20:41:41.432Z,99123.22
2024-02-11T20:45:54.193Z,99119.75
2024-02-11T20:50:08.648Z,99122.25
2024-02-11T20:54:21.209Z,99119.69
2024-02-11T20:58:35.016Z,99110.72
2024-02-11T21:02:47.691Z,99117.97
2024-02-11T21:07:00.995Z,99111.25
2024-02-11T21:11:13.733Z,99104.88
2024-02-11T21:15:26.541Z,99127.38
2024-02-11T21:19:38.903Z,99135.75
2024-02-11T21:23:51.873Z,99143.59
2024-02-11T21:28:04.418Z,99147.94
2024-02-11T21:32:17.757Z,99151.91
2024-02-11T21:36:30.260Z,99156.03
2024-02-11T21:40:43.587Z,99152.41
2024-02-11T21:44:55.996Z,99149.16
2024-02-11T21:49:11.189Z,99139.38
2024-02-11T21:53:23.665Z,99124.94
2024-02-11T21:57:36.080Z,99113.84
2024-02-11T22:01:49.695Z,99108.06
2024-02-11T22:06:02.307Z,99096.03
2024-02-11T22:10:14.804Z,99096.84
2024-02-11T22:14:27.168Z,99114.09
2024-02-11T22:18:39.588Z,99116.28
2024-02-11T22:22:53.416Z,99124.34
2024-02-11T22:27:07.418Z,99129.63
2024-02-11T22:31:20.039Z,99116.13
2024-02-11T22:35:33.987Z,99112.41
2024-02-11T22:39:49.116Z,99110.00
2024-02-11T22:44:03.464Z,99109.28
2024-02-11T22:48:16.022Z,99108.34
2024-02-11T22:52:29.600Z,99115.22
2024-02-11T22:56:43.408Z,99112.50
2024-02-11T23:00:56.495Z,99111.97
2024-02-11T23:05:09.244Z,99108.69
2024-02-11T23:09:24.166Z,99113.34
2024-02-11T23:13:36.524Z,99102.91
2024-02-11T23:17:50.546Z,99103.78
2024-02-11T23:22:06.273Z,99100.13
2024-02-11T23:26:18.909Z,99083.38
2024-02-11T23:30:31.715Z,99073.78
2024-02-11T23:34:44.078Z,99073.88
2024-02-11T23:38:56.564Z,99078.63
2024-02-11T23:43:10.335Z,99079.16
2024-02-11T23:47:23.182Z,99082.91
2024-02-11T23:51:35.822Z,99089.59
2024-02-11T23:55:50.968Z,99088.53
